sensor_id;sensor_type;location;lat;lon;timestamp;P1;durP1;ratioP1;P2;durP2;ratioP2
59734;SDS011;64362;45.620;4.920;2023-04-15T00:00:13;1.08;;;0.63;;
59734;SDS011;64362;45.620;4.920;2023-04-15T00:02:40;1.38;;;0.60;;
59734;SDS011;64362;45.620;4.920;2023-04-15T00:05:05;1.50;;;0.63;;
59734;SDS011;64362;45.620;4.920;2023-04-15T00:07:31;1.77;;;0.90;;
59734;SDS011;64362;45.620;4.920;2023-04-15T00:09:57;1.17;;;0.50;;
59734;SDS011;64362;45.620;4.920;2023-04-15T00:12:23;1.60;;;0.70;;
59734;SDS011;64362;45.620;4.920;2023-04-15T00:14:49;1.10;;;0.70;;
59734;SDS011;64362;45.620;4.920;2023-04-15T00:17:15;1.77;;;1.00;;
59734;SDS011;64362;45.620;4.920;2023-04-15T00:19:41;1.23;;;0.63;;
59734;SDS011;64362;45.620;4.920;2023-04-15T00:22:08;1.63;;;0.80;;
59734;SDS011;64362;45.620;4.920;2023-04-15T00:24:34;2.15;;;1.05;;
59734;SDS011;64362;45.620;4.920;2023-04-15T00:26:59;2.42;;;1.00;;
59734;SDS011;64362;45.620;4.920;2023-04-15T00:29:25;1.35;;;0.80;;
59734;SDS011;64362;45.620;4.920;2023-04-15T00:31:51;1.50;;;0.70;;
59734;SDS011;64362;45.620;4.920;2023-04-15T00:34:17;1.92;;;0.70;;
59734;SDS011;64362;45.620;4.920;2023-04-15T00:36:42;1.67;;;0.68;;
59734;SDS011;64362;45.620;4.920;2023-04-15T00:39:09;1.75;;;0.73;;
59734;SDS011;64362;45.620;4.920;2023-04-15T00:41:34;2.45;;;1.02;;
59734;SDS011;64362;45.620;4.920;2023-04-15T00:44:03;0.75;;;0.60;;
59734;SDS011;64362;45.620;4.920;2023-04-15T00:46:30;1.38;;;0.70;;
59734;SDS011;64362;45.620;4.920;2023-04-15T00:48:58;1.40;;;0.88;;
59734;SDS011;64362;45.620;4.920;2023-04-15T00:51:23;1.80;;;0.82;;
59734;SDS011;64362;45.620;4.920;2023-04-15T00:53:49;2.78;;;1.00;;
59734;SDS011;64362;45.620;4.920;2023-04-15T00:56:15;2.28;;;0.80;;
59734;SDS011;64362;45.620;4.920;2023-04-15T00:58:41;1.35;;;0.70;;
59734;SDS011;64362;45.620;4.920;2023-04-15T01:01:06;1.75;;;0.88;;
59734;SDS011;64362;45.620;4.920;2023-04-15T01:03:32;1.80;;;0.98;;
59734;SDS011;64362;45.620;4.920;2023-04-15T01:05:57;1.65;;;0.77;;
59734;SDS011;64362;45.620;4.920;2023-04-15T01:08:28;1.88;;;0.85;;
59734;SDS011;64362;45.620;4.920;2023-04-15T01:10:57;2.28;;;1.08;;
59734;SDS011;64362;45.620;4.920;2023-04-15T01:13:27;1.83;;;1.00;;
59734;SDS011;64362;45.620;4.920;2023-04-15T01:15:54;1.77;;;1.02;;
59734;SDS011;64362;45.620;4.920;2023-04-15T01:18:20;1.80;;;0.90;;
59734;SDS011;64362;45.620;4.920;2023-04-15T01:20:46;2.35;;;0.93;;
59734;SDS011;64362;45.620;4.920;2023-04-15T01:23:12;1.95;;;0.93;;
59734;SDS011;64362;45.620;4.920;2023-04-15T01:25:37;2.38;;;1.13;;
59734;SDS011;64362;45.620;4.920;2023-04-15T01:28:04;1.52;;;0.80;;
59734;SDS011;64362;45.620;4.920;2023-04-15T01:30:33;1.88;;;0.90;;
59734;SDS011;64362;45.620;4.920;2023-04-15T01:32:59;2.03;;;1.10;;
59734;SDS011;64362;45.620;4.920;2023-04-15T01:35:25;1.92;;;1.10;;
59734;SDS011;64362;45.620;4.920;2023-04-15T01:37:51;1.15;;;0.88;;
59734;SDS011;64362;45.620;4.920;2023-04-15T01:40:18;1.83;;;1.17;;
59734;SDS011;64362;45.620;4.920;2023-04-15T01:42:44;2.03;;;1.05;;
59734;SDS011;64362;45.620;4.920;2023-04-15T01:45:10;2.13;;;1.10;;
59734;SDS011;64362;45.620;4.920;2023-04-15T01:47:36;1.73;;;0.93;;
59734;SDS011;64362;45.620;4.920;2023-04-15T01:50:02;1.85;;;0.82;;
59734;SDS011;64362;45.620;4.920;2023-04-15T01:52:27;1.60;;;0.80;;
59734;SDS011;64362;45.620;4.920;2023-04-15T01:54:54;2.28;;;1.20;;
59734;SDS011;64362;45.620;4.920;2023-04-15T01:57:20;2.58;;;1.23;;
59734;SDS011;64362;45.620;4.920;2023-04-15T01:59:46;1.33;;;0.88;;
59734;SDS011;64362;45.620;4.920;2023-04-15T02:02:11;1.73;;;1.10;;
59734;SDS011;64362;45.620;4.920;2023-04-15T02:04:36;1.58;;;0.90;;
59734;SDS011;64362;45.620;4.920;2023-04-15T02:07:02;1.98;;;1.20;;
59734;SDS011;64362;45.620;4.920;2023-04-15T02:09:28;1.63;;;1.15;;
59734;SDS011;64362;45.620;4.920;2023-04-15T02:11:53;2.53;;;1.27;;
59734;SDS011;64362;45.620;4.920;2023-04-15T02:14:18;2.75;;;1.20;;
59734;SDS011;64362;45.620;4.920;2023-04-15T02:16:45;2.25;;;1.00;;
59734;SDS011;64362;45.620;4.920;2023-04-15T02:19:13;2.05;;;1.10;;
59734;SDS011;64362;45.620;4.920;2023-04-15T02:21:39;1.75;;;0.90;;
59734;SDS011;64362;45.620;4.920;2023-04-15T02:24:06;2.08;;;1.15;;
59734;SDS011;64362;45.620;4.920;2023-04-15T02:26:32;2.47;;;1.23;;
59734;SDS011;64362;45.620;4.920;2023-04-15T02:28:57;1.67;;;1.00;;
59734;SDS011;64362;45.620;4.920;2023-04-15T02:31:24;2.50;;;1.10;;
59734;SDS011;64362;45.620;4.920;2023-04-15T02:33:50;2.42;;;1.02;;
59734;SDS011;64362;45.620;4.920;2023-04-15T02:36:16;2.17;;;1.35;;
59734;SDS011;64362;45.620;4.920;2023-04-15T02:38:42;2.00;;;0.98;;
59734;SDS011;64362;45.620;4.920;2023-04-15T02:41:10;2.78;;;1.20;;
59734;SDS011;64362;45.620;4.920;2023-04-15T02:43:36;2.17;;;1.20;;
59734;SDS011;64362;45.620;4.920;2023-04-15T02:46:04;2.13;;;1.20;;
59734;SDS011;64362;45.620;4.920;2023-04-15T02:48:30;2.70;;;1.52;;
59734;SDS011;64362;45.620;4.920;2023-04-15T02:53:41;2.65;;;1.10;;
59734;SDS011;64362;45.620;4.920;2023-04-15T02:56:07;2.65;;;1.20;;
59734;SDS011;64362;45.620;4.920;2023-04-15T02:58:34;1.80;;;1.02;;
59734;SDS011;64362;45.620;4.920;2023-04-15T03:01:00;2.38;;;1.00;;
59734;SDS011;64362;45.620;4.920;2023-04-15T03:03:25;1.98;;;1.10;;
59734;SDS011;64362;45.620;4.920;2023-04-15T03:05:52;2.17;;;1.58;;
59734;SDS011;64362;45.620;4.920;2023-04-15T03:08:18;2.63;;;1.20;;
59734;SDS011;64362;45.620;4.920;2023-04-15T03:10:45;1.67;;;1.23;;
59734;SDS011;64362;45.620;4.920;2023-04-15T03:13:11;2.90;;;1.25;;
59734;SDS011;64362;45.620;4.920;2023-04-15T03:15:38;2.45;;;1.00;;
59734;SDS011;64362;45.620;4.920;2023-04-15T03:18:03;2.28;;;1.20;;
59734;SDS011;64362;45.620;4.920;2023-04-15T03:20:29;3.22;;;1.10;;
59734;SDS011;64362;45.620;4.920;2023-04-15T03:22:54;1.75;;;1.05;;
59734;SDS011;64362;45.620;4.920;2023-04-15T03:25:22;2.40;;;1.35;;
59734;SDS011;64362;45.620;4.920;2023-04-15T03:27:47;1.80;;;1.10;;
59734;SDS011;64362;45.620;4.920;2023-04-15T03:30:13;1.85;;;1.10;;
59734;SDS011;64362;45.620;4.920;2023-04-15T03:32:39;1.88;;;1.10;;
59734;SDS011;64362;45.620;4.920;2023-04-15T03:35:06;2.00;;;1.13;;
59734;SDS011;64362;45.620;4.920;2023-04-15T03:37:32;2.13;;;1.20;;
59734;SDS011;64362;45.620;4.920;2023-04-15T03:39:57;2.03;;;1.20;;
59734;SDS011;64362;45.620;4.920;2023-04-15T03:42:23;2.58;;;1.38;;
59734;SDS011;64362;45.620;4.920;2023-04-15T03:44:48;1.90;;;1.15;;
59734;SDS011;64362;45.620;4.920;2023-04-15T03:47:14;2.65;;;1.30;;
59734;SDS011;64362;45.620;4.920;2023-04-15T03:49:39;2.05;;;1.27;;
59734;SDS011;64362;45.620;4.920;2023-04-15T03:52:05;2.17;;;1.20;;
59734;SDS011;64362;45.620;4.920;2023-04-15T03:54:31;2.05;;;1.10;;
59734;SDS011;64362;45.620;4.920;2023-04-15T03:56:56;2.50;;;1.30;;
59734;SDS011;64362;45.620;4.920;2023-04-15T03:59:21;2.00;;;1.42;;
59734;SDS011;64362;45.620;4.920;2023-04-15T04:01:47;1.63;;;0.90;;
59734;SDS011;64362;45.620;4.920;2023-04-15T04:04:12;2.03;;;1.00;;
59734;SDS011;64362;45.620;4.920;2023-04-15T04:06:38;2.22;;;1.23;;
59734;SDS011;64362;45.620;4.920;2023-04-15T04:09:03;2.25;;;1.00;;
59734;SDS011;64362;45.620;4.920;2023-04-15T04:11:29;2.50;;;1.40;;
59734;SDS011;64362;45.620;4.920;2023-04-15T04:13:54;2.03;;;1.30;;
59734;SDS011;64362;45.620;4.920;2023-04-15T04:16:20;2.03;;;1.25;;
59734;SDS011;64362;45.620;4.920;2023-04-15T04:18:45;1.30;;;0.88;;
59734;SDS011;64362;45.620;4.920;2023-04-15T04:21:11;2.28;;;1.25;;
59734;SDS011;64362;45.620;4.920;2023-04-15T04:23:36;1.65;;;1.20;;
59734;SDS011;64362;45.620;4.920;2023-04-15T04:26:02;1.75;;;1.05;;
59734;SDS011;64362;45.620;4.920;2023-04-15T04:28:27;1.67;;;1.15;;
59734;SDS011;64362;45.620;4.920;2023-04-15T04:30:53;2.05;;;1.40;;
59734;SDS011;64362;45.620;4.920;2023-04-15T04:33:19;1.98;;;1.23;;
59734;SDS011;64362;45.620;4.920;2023-04-15T04:35:44;2.20;;;1.02;;
59734;SDS011;64362;45.620;4.920;2023-04-15T04:38:10;3.00;;;1.40;;
59734;SDS011;64362;45.620;4.920;2023-04-15T04:40:35;2.28;;;1.13;;
59734;SDS011;64362;45.620;4.920;2023-04-15T04:43:01;1.95;;;1.20;;
59734;SDS011;64362;45.620;4.920;2023-04-15T04:45:26;2.58;;;1.40;;
59734;SDS011;64362;45.620;4.920;2023-04-15T04:47:52;2.13;;;1.27;;
59734;SDS011;64362;45.620;4.920;2023-04-15T04:50:17;3.80;;;1.45;;
59734;SDS011;64362;45.620;4.920;2023-04-15T04:52:43;2.63;;;1.30;;
59734;SDS011;64362;45.620;4.920;2023-04-15T04:55:08;1.75;;;1.30;;
59734;SDS011;64362;45.620;4.920;2023-04-15T04:57:34;2.63;;;1.45;;
59734;SDS011;64362;45.620;4.920;2023-04-15T05:00:00;1.98;;;1.27;;
59734;SDS011;64362;45.620;4.920;2023-04-15T05:02:27;2.10;;;1.10;;
59734;SDS011;64362;45.620;4.920;2023-04-15T05:04:52;3.65;;;1.40;;
59734;SDS011;64362;45.620;4.920;2023-04-15T05:07:18;2.33;;;1.48;;
59734;SDS011;64362;45.620;4.920;2023-04-15T05:09:45;2.88;;;1.10;;
59734;SDS011;64362;45.620;4.920;2023-04-15T05:12:10;2.08;;;1.38;;
59734;SDS011;64362;45.620;4.920;2023-04-15T05:14:39;1.70;;;1.20;;
59734;SDS011;64362;45.620;4.920;2023-04-15T05:17:06;2.47;;;1.30;;
59734;SDS011;64362;45.620;4.920;2023-04-15T05:19:32;2.95;;;1.58;;
59734;SDS011;64362;45.620;4.920;2023-04-15T05:21:57;2.22;;;1.35;;
59734;SDS011;64362;45.620;4.920;2023-04-15T05:24:22;3.20;;;1.40;;
59734;SDS011;64362;45.620;4.920;2023-04-15T05:26:48;2.15;;;1.38;;
59734;SDS011;64362;45.620;4.920;2023-04-15T05:29:13;2.88;;;1.58;;
59734;SDS011;64362;45.620;4.920;2023-04-15T05:31:39;2.58;;;1.45;;
59734;SDS011;64362;45.620;4.920;2023-04-15T05:34:05;3.00;;;1.40;;
59734;SDS011;64362;45.620;4.920;2023-04-15T05:36:31;2.67;;;1.70;;
59734;SDS011;64362;45.620;4.920;2023-04-15T05:38:57;1.90;;;1.20;;
59734;SDS011;64362;45.620;4.920;2023-04-15T05:41:22;2.55;;;1.45;;
59734;SDS011;64362;45.620;4.920;2023-04-15T05:43:48;3.35;;;1.45;;
59734;SDS011;64362;45.620;4.920;2023-04-15T05:46:13;3.17;;;1.23;;
59734;SDS011;64362;45.620;4.920;2023-04-15T05:48:39;1.88;;;1.20;;
59734;SDS011;64362;45.620;4.920;2023-04-15T05:51:05;2.72;;;1.55;;
59734;SDS011;64362;45.620;4.920;2023-04-15T05:53:30;2.08;;;1.20;;
59734;SDS011;64362;45.620;4.920;2023-04-15T05:55:56;2.30;;;1.38;;
59734;SDS011;64362;45.620;4.920;2023-04-15T05:58:21;2.28;;;1.30;;
59734;SDS011;64362;45.620;4.920;2023-04-15T06:00:47;1.90;;;1.15;;
59734;SDS011;64362;45.620;4.920;2023-04-15T06:03:12;1.95;;;1.30;;
59734;SDS011;64362;45.620;4.920;2023-04-15T06:05:38;1.65;;;1.20;;
59734;SDS011;64362;45.620;4.920;2023-04-15T06:08:04;1.83;;;1.20;;
59734;SDS011;64362;45.620;4.920;2023-04-15T06:10:30;2.55;;;1.40;;
59734;SDS011;64362;45.620;4.920;2023-04-15T06:13:00;1.48;;;1.05;;
59734;SDS011;64362;45.620;4.920;2023-04-15T06:15:27;2.08;;;1.20;;
59734;SDS011;64362;45.620;4.920;2023-04-15T06:17:52;2.60;;;1.42;;
59734;SDS011;64362;45.620;4.920;2023-04-15T06:20:17;2.30;;;1.30;;
59734;SDS011;64362;45.620;4.920;2023-04-15T06:22:43;2.22;;;1.20;;
59734;SDS011;64362;45.620;4.920;2023-04-15T06:25:09;1.60;;;1.10;;
59734;SDS011;64362;45.620;4.920;2023-04-15T06:27:35;2.72;;;1.30;;
59734;SDS011;64362;45.620;4.920;2023-04-15T06:30:00;2.10;;;1.20;;
59734;SDS011;64362;45.620;4.920;2023-04-15T06:32:26;2.42;;;1.27;;
59734;SDS011;64362;45.620;4.920;2023-04-15T06:34:51;1.75;;;0.93;;
59734;SDS011;64362;45.620;4.920;2023-04-15T06:37:17;1.75;;;1.10;;
59734;SDS011;64362;45.620;4.920;2023-04-15T06:39:42;2.83;;;1.13;;
59734;SDS011;64362;45.620;4.920;2023-04-15T06:42:09;1.77;;;1.00;;
59734;SDS011;64362;45.620;4.920;2023-04-15T06:44:35;1.52;;;1.02;;
59734;SDS011;64362;45.620;4.920;2023-04-15T06:47:01;2.00;;;1.15;;
59734;SDS011;64362;45.620;4.920;2023-04-15T06:49:27;2.58;;;1.20;;
59734;SDS011;64362;45.620;4.920;2023-04-15T06:51:52;2.60;;;1.08;;
59734;SDS011;64362;45.620;4.920;2023-04-15T06:54:18;1.88;;;1.13;;
59734;SDS011;64362;45.620;4.920;2023-04-15T06:56:43;2.72;;;0.90;;
59734;SDS011;64362;45.620;4.920;2023-04-15T06:59:09;2.35;;;1.20;;
59734;SDS011;64362;45.620;4.920;2023-04-15T07:01:35;1.85;;;1.00;;
59734;SDS011;64362;45.620;4.920;2023-04-15T07:04:00;1.83;;;0.90;;
59734;SDS011;64362;45.620;4.920;2023-04-15T07:06:26;1.38;;;0.80;;
59734;SDS011;64362;45.620;4.920;2023-04-15T07:08:52;1.65;;;1.10;;
59734;SDS011;64362;45.620;4.920;2023-04-15T07:11:18;1.20;;;0.80;;
59734;SDS011;64362;45.620;4.920;2023-04-15T07:13:44;2.40;;;0.90;;
59734;SDS011;64362;45.620;4.920;2023-04-15T07:16:10;1.38;;;0.80;;
59734;SDS011;64362;45.620;4.920;2023-04-15T07:18:36;1.98;;;0.80;;
59734;SDS011;64362;45.620;4.920;2023-04-15T07:21:01;2.00;;;0.85;;
59734;SDS011;64362;45.620;4.920;2023-04-15T07:23:27;1.70;;;0.60;;
59734;SDS011;64362;45.620;4.920;2023-04-15T07:25:52;1.52;;;0.75;;
59734;SDS011;64362;45.620;4.920;2023-04-15T07:28:18;2.20;;;0.93;;
59734;SDS011;64362;45.620;4.920;2023-04-15T07:30:43;2.55;;;1.05;;
59734;SDS011;64362;45.620;4.920;2023-04-15T07:33:09;1.45;;;0.80;;
59734;SDS011;64362;45.620;4.920;2023-04-15T07:35:34;1.95;;;1.00;;
59734;SDS011;64362;45.620;4.920;2023-04-15T07:38:00;1.63;;;0.65;;
59734;SDS011;64362;45.620;4.920;2023-04-15T07:40:26;1.45;;;0.85;;
59734;SDS011;64362;45.620;4.920;2023-04-15T07:42:52;1.77;;;0.60;;
59734;SDS011;64362;45.620;4.920;2023-04-15T07:45:17;1.50;;;0.73;;
59734;SDS011;64362;45.620;4.920;2023-04-15T07:47:43;1.55;;;0.70;;
59734;SDS011;64362;45.620;4.920;2023-04-15T07:50:08;1.80;;;0.70;;
59734;SDS011;64362;45.620;4.920;2023-04-15T07:52:37;1.30;;;0.68;;
59734;SDS011;64362;45.620;4.920;2023-04-15T07:55:04;1.67;;;0.50;;
59734;SDS011;64362;45.620;4.920;2023-04-15T07:57:32;1.73;;;0.80;;
59734;SDS011;64362;45.620;4.920;2023-04-15T07:59:59;1.42;;;0.63;;
59734;SDS011;64362;45.620;4.920;2023-04-15T08:02:24;1.77;;;0.68;;
59734;SDS011;64362;45.620;4.920;2023-04-15T08:04:50;0.95;;;0.60;;
59734;SDS011;64362;45.620;4.920;2023-04-15T08:07:17;1.80;;;0.68;;
59734;SDS011;64362;45.620;4.920;2023-04-15T08:09:42;1.20;;;0.68;;
59734;SDS011;64362;45.620;4.920;2023-04-15T08:12:08;2.58;;;0.70;;
59734;SDS011;64362;45.620;4.920;2023-04-15T08:14:36;0.85;;;0.68;;
59734;SDS011;64362;45.620;4.920;2023-04-15T08:17:02;1.15;;;0.65;;
59734;SDS011;64362;45.620;4.920;2023-04-15T08:19:28;1.50;;;0.80;;
59734;SDS011;64362;45.620;4.920;2023-04-15T08:21:54;1.05;;;0.60;;
59734;SDS011;64362;45.620;4.920;2023-04-15T08:24:20;1.08;;;0.52;;
59734;SDS011;64362;45.620;4.920;2023-04-15T08:26:46;0.73;;;0.50;;
59734;SDS011;64362;45.620;4.920;2023-04-15T08:29:11;1.48;;;0.65;;
59734;SDS011;64362;45.620;4.920;2023-04-15T08:31:37;0.60;;;0.50;;
59734;SDS011;64362;45.620;4.920;2023-04-15T08:34:02;1.58;;;0.70;;
59734;SDS011;64362;45.620;4.920;2023-04-15T08:36:29;0.90;;;0.60;;
59734;SDS011;64362;45.620;4.920;2023-04-15T08:38:55;1.20;;;0.52;;
59734;SDS011;64362;45.620;4.920;2023-04-15T08:41:21;2.17;;;0.50;;
59734;SDS011;64362;45.620;4.920;2023-04-15T08:43:57;1.25;;;0.80;;
59734;SDS011;64362;45.620;4.920;2023-04-15T08:46:26;0.82;;;0.40;;
59734;SDS011;64362;45.620;4.920;2023-04-15T08:48:51;1.27;;;0.52;;
59734;SDS011;64362;45.620;4.920;2023-04-15T08:51:21;1.20;;;0.60;;
59734;SDS011;64362;45.620;4.920;2023-04-15T08:53:46;0.88;;;0.55;;
59734;SDS011;64362;45.620;4.920;2023-04-15T08:56:13;1.40;;;0.32;;
59734;SDS011;64362;45.620;4.920;2023-04-15T08:58:39;1.30;;;0.50;;
59734;SDS011;64362;45.620;4.920;2023-04-15T09:01:05;0.93;;;0.55;;
59734;SDS011;64362;45.620;4.920;2023-04-15T09:03:31;0.98;;;0.40;;
59734;SDS011;64362;45.620;4.920;2023-04-15T09:05:56;0.95;;;0.55;;
59734;SDS011;64362;45.620;4.920;2023-04-15T09:08:23;0.93;;;0.43;;
59734;SDS011;64362;45.620;4.920;2023-04-15T09:10:48;0.90;;;0.80;;
59734;SDS011;64362;45.620;4.920;2023-04-15T09:13:13;1.33;;;0.50;;
59734;SDS011;64362;45.620;4.920;2023-04-15T09:15:39;1.10;;;0.43;;
59734;SDS011;64362;45.620;4.920;2023-04-15T09:18:05;0.98;;;0.43;;
59734;SDS011;64362;45.620;4.920;2023-04-15T09:20:32;1.15;;;0.45;;
59734;SDS011;64362;45.620;4.920;2023-04-15T09:23:10;1.48;;;0.70;;
59734;SDS011;64362;45.620;4.920;2023-04-15T09:25:39;1.20;;;0.52;;
59734;SDS011;64362;45.620;4.920;2023-04-15T09:28:07;0.90;;;0.50;;
59734;SDS011;64362;45.620;4.920;2023-04-15T09:30:32;1.73;;;0.50;;
59734;SDS011;64362;45.620;4.920;2023-04-15T09:32:59;0.70;;;0.55;;
59734;SDS011;64362;45.620;4.920;2023-04-15T09:35:33;0.75;;;0.43;;
59734;SDS011;64362;45.620;4.920;2023-04-15T09:38:03;0.82;;;0.50;;
59734;SDS011;64362;45.620;4.920;2023-04-15T09:43:00;1.25;;;0.50;;
59734;SDS011;64362;45.620;4.920;2023-04-15T09:45:26;1.48;;;0.52;;
59734;SDS011;64362;45.620;4.920;2023-04-15T09:47:52;0.57;;;0.40;;
59734;SDS011;64362;45.620;4.920;2023-04-15T09:50:21;1.02;;;0.50;;
59734;SDS011;64362;45.620;4.920;2023-04-15T09:52:46;0.80;;;0.40;;
59734;SDS011;64362;45.620;4.920;2023-04-15T09:55:13;1.02;;;0.52;;
59734;SDS011;64362;45.620;4.920;2023-04-15T09:57:40;1.38;;;0.40;;
59734;SDS011;64362;45.620;4.920;2023-04-15T10:00:07;0.82;;;0.57;;
59734;SDS011;64362;45.620;4.920;2023-04-15T10:02:35;0.80;;;0.40;;
59734;SDS011;64362;45.620;4.920;2023-04-15T10:05:01;1.33;;;0.40;;
59734;SDS011;64362;45.620;4.920;2023-04-15T10:07:27;0.98;;;0.50;;
59734;SDS011;64362;45.620;4.920;2023-04-15T10:09:52;0.80;;;0.40;;
59734;SDS011;64362;45.620;4.920;2023-04-15T10:12:19;0.73;;;0.47;;
59734;SDS011;64362;45.620;4.920;2023-04-15T10:14:47;0.65;;;0.43;;
59734;SDS011;64362;45.620;4.920;2023-04-15T10:17:22;1.30;;;0.52;;
59734;SDS011;64362;45.620;4.920;2023-04-15T10:19:53;1.10;;;0.50;;
59734;SDS011;64362;45.620;4.920;2023-04-15T10:22:19;1.42;;;0.40;;
59734;SDS011;64362;45.620;4.920;2023-04-15T10:24:44;1.42;;;0.52;;
59734;SDS011;64362;45.620;4.920;2023-04-15T10:27:11;0.88;;;0.43;;
59734;SDS011;64362;45.620;4.920;2023-04-15T10:29:36;1.65;;;0.60;;
59734;SDS011;64362;45.620;4.920;2023-04-15T10:32:02;0.88;;;0.40;;
59734;SDS011;64362;45.620;4.920;2023-04-15T10:34:27;0.88;;;0.47;;
59734;SDS011;64362;45.620;4.920;2023-04-15T10:36:54;0.65;;;0.40;;
59734;SDS011;64362;45.620;4.920;2023-04-15T10:44:31;0.40;;;0.35;;
59734;SDS011;64362;45.620;4.920;2023-04-15T10:46:57;1.58;;;0.50;;
59734;SDS011;64362;45.620;4.920;2023-04-15T10:49:25;0.77;;;0.50;;
59734;SDS011;64362;45.620;4.920;2023-04-15T10:51:52;1.13;;;0.57;;
59734;SDS011;64362;45.620;4.920;2023-04-15T10:56:51;1.38;;;0.50;;
59734;SDS011;64362;45.620;4.920;2023-04-15T10:59:17;1.00;;;0.50;;
59734;SDS011;64362;45.620;4.920;2023-04-15T11:01:56;0.52;;;0.35;;
59734;SDS011;64362;45.620;4.920;2023-04-15T11:07:32;1.10;;;0.43;;
59734;SDS011;64362;45.620;4.920;2023-04-15T11:09:58;1.73;;;0.60;;
59734;SDS011;64362;45.620;4.920;2023-04-15T11:12:32;1.27;;;0.40;;
59734;SDS011;64362;45.620;4.920;2023-04-15T11:15:00;1.10;;;0.40;;
59734;SDS011;64362;45.620;4.920;2023-04-15T11:18:08;1.20;;;0.55;;
59734;SDS011;64362;45.620;4.920;2023-04-15T11:20:35;0.85;;;0.43;;
59734;SDS011;64362;45.620;4.920;2023-04-15T11:23:00;0.80;;;0.38;;
59734;SDS011;64362;45.620;4.920;2023-04-15T11:25:27;1.20;;;0.55;;
59734;SDS011;64362;45.620;4.920;2023-04-15T11:27:53;1.23;;;0.55;;
59734;SDS011;64362;45.620;4.920;2023-04-15T11:30:20;0.50;;;0.40;;
59734;SDS011;64362;45.620;4.920;2023-04-15T11:32:46;0.80;;;0.40;;
59734;SDS011;64362;45.620;4.920;2023-04-15T11:35:12;0.88;;;0.40;;
59734;SDS011;64362;45.620;4.920;2023-04-15T11:37:38;1.05;;;0.47;;
59734;SDS011;64362;45.620;4.920;2023-04-15T11:40:04;1.10;;;0.50;;
59734;SDS011;64362;45.620;4.920;2023-04-15T11:42:30;0.80;;;0.40;;
59734;SDS011;64362;45.620;4.920;2023-04-15T11:45:06;0.75;;;0.40;;
59734;SDS011;64362;45.620;4.920;2023-04-15T11:47:34;0.70;;;0.50;;
59734;SDS011;64362;45.620;4.920;2023-04-15T11:50:16;0.50;;;0.30;;
59734;SDS011;64362;45.620;4.920;2023-04-15T11:52:55;0.75;;;0.40;;
59734;SDS011;64362;45.620;4.920;2023-04-15T11:55:21;0.80;;;0.43;;
59734;SDS011;64362;45.620;4.920;2023-04-15T11:58:04;0.57;;;0.38;;
59734;SDS011;64362;45.620;4.920;2023-04-15T12:00:32;1.58;;;0.52;;
59734;SDS011;64362;45.620;4.920;2023-04-15T12:09:25;0.77;;;0.32;;
59734;SDS011;64362;45.620;4.920;2023-04-15T12:11:40;1.83;;;0.50;;
59734;SDS011;64362;45.620;4.920;2023-04-15T12:16:38;0.70;;;0.30;;
59734;SDS011;64362;45.620;4.920;2023-04-15T12:19:09;0.52;;;0.30;;
59734;SDS011;64362;45.620;4.920;2023-04-15T12:21:37;0.55;;;0.30;;
59734;SDS011;64362;45.620;4.920;2023-04-15T12:24:05;1.17;;;0.55;;
59734;SDS011;64362;45.620;4.920;2023-04-15T12:26:34;0.63;;;0.40;;
59734;SDS011;64362;45.620;4.920;2023-04-15T12:29:04;0.93;;;0.40;;
59734;SDS011;64362;45.620;4.920;2023-04-15T12:31:31;1.15;;;0.40;;
59734;SDS011;64362;45.620;4.920;2023-04-15T12:33:57;1.02;;;0.50;;
59734;SDS011;64362;45.620;4.920;2023-04-15T12:36:24;0.65;;;0.30;;
59734;SDS011;64362;45.620;4.920;2023-04-15T12:38:50;0.82;;;0.40;;
59734;SDS011;64362;45.620;4.920;2023-04-15T12:41:16;0.77;;;0.43;;
59734;SDS011;64362;45.620;4.920;2023-04-15T12:43:43;0.40;;;0.22;;
59734;SDS011;64362;45.620;4.920;2023-04-15T12:46:09;1.08;;;0.40;;
59734;SDS011;64362;45.620;4.920;2023-04-15T12:48:35;0.60;;;0.38;;
59734;SDS011;64362;45.620;4.920;2023-04-15T12:51:00;0.73;;;0.40;;
59734;SDS011;64362;45.620;4.920;2023-04-15T12:53:26;0.57;;;0.30;;
59734;SDS011;64362;45.620;4.920;2023-04-15T12:55:52;0.60;;;0.20;;
59734;SDS011;64362;45.620;4.920;2023-04-15T12:58:18;0.43;;;0.30;;
59734;SDS011;64362;45.620;4.920;2023-04-15T13:00:43;0.57;;;0.40;;
59734;SDS011;64362;45.620;4.920;2023-04-15T13:03:09;0.82;;;0.30;;
59734;SDS011;64362;45.620;4.920;2023-04-15T13:05:34;0.57;;;0.30;;
59734;SDS011;64362;45.620;4.920;2023-04-15T13:08:01;0.52;;;0.30;;
59734;SDS011;64362;45.620;4.920;2023-04-15T13:10:28;0.93;;;0.40;;
59734;SDS011;64362;45.620;4.920;2023-04-15T13:12:53;1.70;;;0.35;;
59734;SDS011;64362;45.620;4.920;2023-04-15T13:15:21;0.20;;;0.20;;
59734;SDS011;64362;45.620;4.920;2023-04-15T13:17:47;0.43;;;0.30;;
59734;SDS011;64362;45.620;4.920;2023-04-15T13:20:12;0.50;;;0.30;;
59734;SDS011;64362;45.620;4.920;2023-04-15T13:22:38;1.40;;;0.40;;
59734;SDS011;64362;45.620;4.920;2023-04-15T13:25:04;0.30;;;0.30;;
59734;SDS011;64362;45.620;4.920;2023-04-15T13:27:29;1.33;;;0.38;;
59734;SDS011;64362;45.620;4.920;2023-04-15T13:29:55;0.40;;;0.30;;
59734;SDS011;64362;45.620;4.920;2023-04-15T13:32:21;0.77;;;0.30;;
59734;SDS011;64362;45.620;4.920;2023-04-15T13:34:47;0.20;;;0.20;;
59734;SDS011;64362;45.620;4.920;2023-04-15T13:37:12;0.70;;;0.32;;
59734;SDS011;64362;45.620;4.920;2023-04-15T13:39:38;0.65;;;0.30;;
59734;SDS011;64362;45.620;4.920;2023-04-15T13:42:03;0.55;;;0.50;;
59734;SDS011;64362;45.620;4.920;2023-04-15T13:44:29;0.73;;;0.38;;
59734;SDS011;64362;45.620;4.920;2023-04-15T13:46:55;0.73;;;0.40;;
59734;SDS011;64362;45.620;4.920;2023-04-15T13:49:20;0.68;;;0.40;;
59734;SDS011;64362;45.620;4.920;2023-04-15T13:51:46;0.50;;;0.40;;
59734;SDS011;64362;45.620;4.920;2023-04-15T13:54:11;1.02;;;0.43;;
59734;SDS011;64362;45.620;4.920;2023-04-15T13:56:37;0.60;;;0.40;;
59734;SDS011;64362;45.620;4.920;2023-04-15T13:59:02;1.20;;;0.50;;
59734;SDS011;64362;45.620;4.920;2023-04-15T14:01:28;0.82;;;0.40;;
59734;SDS011;64362;45.620;4.920;2023-04-15T14:03:53;0.73;;;0.40;;
59734;SDS011;64362;45.620;4.920;2023-04-15T14:06:19;0.57;;;0.20;;
59734;SDS011;64362;45.620;4.920;2023-04-15T14:08:45;0.32;;;0.30;;
59734;SDS011;64362;45.620;4.920;2023-04-15T14:11:10;0.40;;;0.30;;
59734;SDS011;64362;45.620;4.920;2023-04-15T14:13:36;1.70;;;0.40;;
59734;SDS011;64362;45.620;4.920;2023-04-15T14:16:02;0.65;;;0.40;;
59734;SDS011;64362;45.620;4.920;2023-04-15T14:18:27;0.40;;;0.32;;
59734;SDS011;64362;45.620;4.920;2023-04-15T14:20:54;0.52;;;0.40;;
59734;SDS011;64362;45.620;4.920;2023-04-15T14:23:20;0.73;;;0.40;;
59734;SDS011;64362;45.620;4.920;2023-04-15T14:25:45;0.60;;;0.40;;
59734;SDS011;64362;45.620;4.920;2023-04-15T14:28:11;0.70;;;0.30;;
59734;SDS011;64362;45.620;4.920;2023-04-15T14:30:36;1.20;;;0.40;;
59734;SDS011;64362;45.620;4.920;2023-04-15T14:33:02;1.02;;;0.47;;
59734;SDS011;64362;45.620;4.920;2023-04-15T14:35:27;0.55;;;0.50;;
59734;SDS011;64362;45.620;4.920;2023-04-15T14:37:53;0.50;;;0.40;;
59734;SDS011;64362;45.620;4.920;2023-04-15T14:40:19;1.60;;;0.40;;
59734;SDS011;64362;45.620;4.920;2023-04-15T14:42:44;1.13;;;0.45;;
59734;SDS011;64362;45.620;4.920;2023-04-15T14:45:10;0.55;;;0.50;;
59734;SDS011;64362;45.620;4.920;2023-04-15T14:47:36;0.77;;;0.30;;
59734;SDS011;64362;45.620;4.920;2023-04-15T14:50:01;1.40;;;0.40;;
59734;SDS011;64362;45.620;4.920;2023-04-15T14:52:27;1.13;;;0.90;;
59734;SDS011;64362;45.620;4.920;2023-04-15T14:54:54;0.75;;;0.50;;
59734;SDS011;64362;45.620;4.920;2023-04-15T14:57:20;0.50;;;0.40;;
59734;SDS011;64362;45.620;4.920;2023-04-15T14:59:45;0.55;;;0.55;;
59734;SDS011;64362;45.620;4.920;2023-04-15T15:02:11;0.57;;;0.40;;
59734;SDS011;64362;45.620;4.920;2023-04-15T15:04:37;0.65;;;0.50;;
59734;SDS011;64362;45.620;4.920;2023-04-15T15:07:04;0.57;;;0.40;;